sensor_id;sensor_type;location;lat;lon;timestamp;P1;durP1;ratioP1;P2;durP2;ratioP2
22614;SDS011;11474;50.790;0.298;2023-07-30T00:01:46;36.40;;;6.00;;
22614;SDS011;11474;50.790;0.298;2023-07-30T00:04:12;32.38;;;6.20;;
22614;SDS011;11474;50.790;0.298;2023-07-30T00:06:38;29.80;;;5.25;;
22614;SDS011;11474;50.790;0.298;2023-07-30T00:09:04;34.53;;;4.88;;
22614;SDS011;11474;50.790;0.298;2023-07-30T00:11:30;25.90;;;4.90;;
22614;SDS011;11474;50.790;0.298;2023-07-30T00:13:56;29.67;;;4.45;;
22614;SDS011;11474;50.790;0.298;2023-07-30T00:16:22;32.45;;;4.95;;
22614;SDS011;11474;50.790;0.298;2023-07-30T00:18:49;30.43;;;4.70;;
22614;SDS011;11474;50.790;0.298;2023-07-30T00:21:15;29.55;;;5.20;;
22614;SDS011;11474;50.790;0.298;2023-07-30T00:23:41;23.80;;;4.30;;
22614;SDS011;11474;50.790;0.298;2023-07-30T00:26:07;26.47;;;3.77;;
22614;SDS011;11474;50.790;0.298;2023-07-30T00:28:34;32.53;;;4.40;;
22614;SDS011;11474;50.790;0.298;2023-07-30T00:31:00;25.75;;;4.78;;
22614;SDS011;11474;50.790;0.298;2023-07-30T00:33:26;25.17;;;4.37;;
22614;SDS011;11474;50.790;0.298;2023-07-30T00:35:52;28.15;;;4.00;;
22614;SDS011;11474;50.790;0.298;2023-07-30T00:38:18;23.58;;;4.10;;
22614;SDS011;11474;50.790;0.298;2023-07-30T00:40:45;25.92;;;5.07;;
22614;SDS011;11474;50.790;0.298;2023-07-30T00:43:11;24.70;;;4.20;;
22614;SDS011;11474;50.790;0.298;2023-07-30T00:45:38;27.48;;;4.32;;
22614;SDS011;11474;50.790;0.298;2023-07-30T00:48:05;19.67;;;4.00;;
22614;SDS011;11474;50.790;0.298;2023-07-30T00:50:32;24.02;;;3.83;;
22614;SDS011;11474;50.790;0.298;2023-07-30T00:52:58;23.85;;;4.40;;
22614;SDS011;11474;50.790;0.298;2023-07-30T00:55:25;29.60;;;5.72;;
22614;SDS011;11474;50.790;0.298;2023-07-30T00:57:51;31.85;;;4.90;;
22614;SDS011;11474;50.790;0.298;2023-07-30T01:00:17;28.73;;;5.20;;
22614;SDS011;11474;50.790;0.298;2023-07-30T01:02:44;23.77;;;4.43;;
22614;SDS011;11474;50.790;0.298;2023-07-30T01:05:11;28.70;;;4.25;;
22614;SDS011;11474;50.790;0.298;2023-07-30T01:07:37;25.20;;;4.40;;
22614;SDS011;11474;50.790;0.298;2023-07-30T01:10:03;28.52;;;4.53;;
22614;SDS011;11474;50.790;0.298;2023-07-30T01:12:29;27.67;;;5.32;;
22614;SDS011;11474;50.790;0.298;2023-07-30T01:14:56;26.10;;;4.50;;
22614;SDS011;11474;50.790;0.298;2023-07-30T01:17:23;27.67;;;4.80;;
22614;SDS011;11474;50.790;0.298;2023-07-30T01:19:52;26.80;;;4.80;;
22614;SDS011;11474;50.790;0.298;2023-07-30T01:22:20;29.17;;;5.33;;
22614;SDS011;11474;50.790;0.298;2023-07-30T01:24:47;28.13;;;4.65;;
22614;SDS011;11474;50.790;0.298;2023-07-30T01:27:16;29.38;;;5.55;;
22614;SDS011;11474;50.790;0.298;2023-07-30T01:32:26;32.42;;;5.10;;
22614;SDS011;11474;50.790;0.298;2023-07-30T01:34:54;32.05;;;5.32;;
22614;SDS011;11474;50.790;0.298;2023-07-30T01:37:20;32.22;;;5.68;;
22614;SDS011;11474;50.790;0.298;2023-07-30T01:39:47;35.28;;;5.15;;
22614;SDS011;11474;50.790;0.298;2023-07-30T01:42:14;29.88;;;5.07;;
22614;SDS011;11474;50.790;0.298;2023-07-30T01:44:40;28.92;;;5.25;;
22614;SDS011;11474;50.790;0.298;2023-07-30T01:47:06;25.30;;;5.38;;
22614;SDS011;11474;50.790;0.298;2023-07-30T01:49:32;28.85;;;5.85;;
22614;SDS011;11474;50.790;0.298;2023-07-30T01:51:58;33.80;;;5.53;;
22614;SDS011;11474;50.790;0.298;2023-07-30T01:54:24;30.85;;;5.38;;
22614;SDS011;11474;50.790;0.298;2023-07-30T01:56:51;32.80;;;5.03;;
22614;SDS011;11474;50.790;0.298;2023-07-30T01:59:17;34.97;;;5.53;;
22614;SDS011;11474;50.790;0.298;2023-07-30T02:01:43;28.23;;;5.13;;
22614;SDS011;11474;50.790;0.298;2023-07-30T02:04:09;33.50;;;5.83;;
22614;SDS011;11474;50.790;0.298;2023-07-30T02:06:35;34.60;;;5.13;;
22614;SDS011;11474;50.790;0.298;2023-07-30T02:09:02;25.67;;;5.25;;
22614;SDS011;11474;50.790;0.298;2023-07-30T02:11:28;30.33;;;5.13;;
22614;SDS011;11474;50.790;0.298;2023-07-30T02:13:54;33.25;;;5.43;;
22614;SDS011;11474;50.790;0.298;2023-07-30T02:16:21;30.45;;;5.35;;
22614;SDS011;11474;50.790;0.298;2023-07-30T02:18:47;32.03;;;5.57;;
22614;SDS011;11474;50.790;0.298;2023-07-30T02:21:13;31.92;;;4.95;;
22614;SDS011;11474;50.790;0.298;2023-07-30T02:23:39;30.25;;;5.18;;
22614;SDS011;11474;50.790;0.298;2023-07-30T02:26:05;36.17;;;5.80;;
22614;SDS011;11474;50.790;0.298;2023-07-30T02:28:32;26.20;;;4.90;;
22614;SDS011;11474;50.790;0.298;2023-07-30T02:30:58;27.55;;;4.78;;
22614;SDS011;11474;50.790;0.298;2023-07-30T02:33:24;28.00;;;4.72;;
22614;SDS011;11474;50.790;0.298;2023-07-30T02:35:50;26.75;;;4.65;;
22614;SDS011;11474;50.790;0.298;2023-07-30T02:38:16;29.13;;;4.95;;
22614;SDS011;11474;50.790;0.298;2023-07-30T02:40:42;33.15;;;4.75;;
22614;SDS011;11474;50.790;0.298;2023-07-30T02:43:09;30.65;;;5.43;;
22614;SDS011;11474;50.790;0.298;2023-07-30T02:45:35;25.80;;;4.93;;
22614;SDS011;11474;50.790;0.298;2023-07-30T02:48:01;31.10;;;5.05;;
22614;SDS011;11474;50.790;0.298;2023-07-30T02:50:27;27.88;;;4.45;;
22614;SDS011;11474;50.790;0.298;2023-07-30T02:52:53;24.90;;;4.40;;
22614;SDS011;11474;50.790;0.298;2023-07-30T02:55:19;21.73;;;4.18;;
22614;SDS011;11474;50.790;0.298;2023-07-30T02:57:45;20.90;;;3.80;;
22614;SDS011;11474;50.790;0.298;2023-07-30T03:00:11;17.63;;;3.70;;
22614;SDS011;11474;50.790;0.298;2023-07-30T03:02:39;14.32;;;2.75;;
22614;SDS011;11474;50.790;0.298;2023-07-30T03:05:06;17.10;;;3.08;;
22614;SDS011;11474;50.790;0.298;2023-07-30T03:07:33;14.18;;;2.28;;
22614;SDS011;11474;50.790;0.298;2023-07-30T03:09:59;11.75;;;2.35;;
22614;SDS011;11474;50.790;0.298;2023-07-30T03:12:25;14.57;;;2.60;;
22614;SDS011;11474;50.790;0.298;2023-07-30T03:14:52;13.48;;;2.78;;
22614;SDS011;11474;50.790;0.298;2023-07-30T03:17:18;14.35;;;2.60;;
22614;SDS011;11474;50.790;0.298;2023-07-30T03:19:45;13.97;;;3.20;;
22614;SDS011;11474;50.790;0.298;2023-07-30T03:22:12;14.25;;;2.40;;
22614;SDS011;11474;50.790;0.298;2023-07-30T03:24:38;16.15;;;2.70;;
22614;SDS011;11474;50.790;0.298;2023-07-30T03:27:04;15.05;;;2.72;;
22614;SDS011;11474;50.790;0.298;2023-07-30T03:29:30;13.07;;;2.47;;
22614;SDS011;11474;50.790;0.298;2023-07-30T03:31:57;14.52;;;2.65;;
22614;SDS011;11474;50.790;0.298;2023-07-30T03:34:23;14.90;;;2.55;;
22614;SDS011;11474;50.790;0.298;2023-07-30T03:36:50;12.10;;;2.95;;
22614;SDS011;11474;50.790;0.298;2023-07-30T03:39:16;14.20;;;2.92;;
22614;SDS011;11474;50.790;0.298;2023-07-30T03:41:43;14.48;;;2.45;;
22614;SDS011;11474;50.790;0.298;2023-07-30T03:44:09;19.65;;;3.38;;
22614;SDS011;11474;50.790;0.298;2023-07-30T03:46:35;17.95;;;2.85;;
22614;SDS011;11474;50.790;0.298;2023-07-30T03:49:02;16.50;;;2.90;;
22614;SDS011;11474;50.790;0.298;2023-07-30T03:51:28;16.02;;;2.95;;
22614;SDS011;11474;50.790;0.298;2023-07-30T03:53:54;13.43;;;2.67;;
22614;SDS011;11474;50.790;0.298;2023-07-30T03:56:20;15.20;;;2.92;;
22614;SDS011;11474;50.790;0.298;2023-07-30T03:58:46;17.90;;;3.25;;
22614;SDS011;11474;50.790;0.298;2023-07-30T04:01:12;20.25;;;3.30;;
22614;SDS011;11474;50.790;0.298;2023-07-30T04:03:39;16.37;;;2.60;;
22614;SDS011;11474;50.790;0.298;2023-07-30T04:06:05;13.70;;;3.17;;
22614;SDS011;11474;50.790;0.298;2023-07-30T04:08:31;11.00;;;2.40;;
22614;SDS011;11474;50.790;0.298;2023-07-30T04:10:57;16.58;;;3.45;;
22614;SDS011;11474;50.790;0.298;2023-07-30T04:13:23;12.43;;;2.83;;
22614;SDS011;11474;50.790;0.298;2023-07-30T04:15:49;18.33;;;2.78;;
22614;SDS011;11474;50.790;0.298;2023-07-30T04:18:15;17.27;;;3.40;;
22614;SDS011;11474;50.790;0.298;2023-07-30T04:20:41;14.15;;;2.80;;
22614;SDS011;11474;50.790;0.298;2023-07-30T04:23:08;11.88;;;2.50;;
22614;SDS011;11474;50.790;0.298;2023-07-30T04:25:34;15.20;;;2.40;;
22614;SDS011;11474;50.790;0.298;2023-07-30T04:28:00;16.27;;;3.00;;
22614;SDS011;11474;50.790;0.298;2023-07-30T04:30:26;14.88;;;2.58;;
22614;SDS011;11474;50.790;0.298;2023-07-30T04:32:52;17.27;;;2.90;;
22614;SDS011;11474;50.790;0.298;2023-07-30T04:35:18;11.70;;;2.35;;
22614;SDS011;11474;50.790;0.298;2023-07-30T04:37:44;8.82;;;2.33;;
22614;SDS011;11474;50.790;0.298;2023-07-30T04:40:10;14.10;;;2.47;;
22614;SDS011;11474;50.790;0.298;2023-07-30T04:42:37;11.27;;;2.60;;
22614;SDS011;11474;50.790;0.298;2023-07-30T04:45:03;10.50;;;2.50;;
22614;SDS011;11474;50.790;0.298;2023-07-30T04:47:29;14.80;;;2.72;;
22614;SDS011;11474;50.790;0.298;2023-07-30T04:49:55;12.20;;;2.27;;
22614;SDS011;11474;50.790;0.298;2023-07-30T04:52:21;12.95;;;3.03;;
22614;SDS011;11474;50.790;0.298;2023-07-30T04:54:48;16.00;;;2.33;;
22614;SDS011;11474;50.790;0.298;2023-07-30T04:57:14;14.18;;;2.88;;
22614;SDS011;11474;50.790;0.298;2023-07-30T04:59:40;14.20;;;3.10;;
22614;SDS011;11474;50.790;0.298;2023-07-30T05:02:06;17.02;;;3.13;;
22614;SDS011;11474;50.790;0.298;2023-07-30T05:04:32;15.10;;;2.47;;
22614;SDS011;11474;50.790;0.298;2023-07-30T05:06:58;15.80;;;2.95;;
22614;SDS011;11474;50.790;0.298;2023-07-30T05:09:24;16.25;;;2.67;;
22614;SDS011;11474;50.790;0.298;2023-07-30T05:11:51;13.70;;;2.75;;
22614;SDS011;11474;50.790;0.298;2023-07-30T05:14:17;15.63;;;2.40;;
22614;SDS011;11474;50.790;0.298;2023-07-30T05:16:43;14.82;;;2.80;;
22614;SDS011;11474;50.790;0.298;2023-07-30T05:19:10;14.65;;;2.78;;
22614;SDS011;11474;50.790;0.298;2023-07-30T05:21:36;15.00;;;2.60;;
22614;SDS011;11474;50.790;0.298;2023-07-30T05:24:02;15.10;;;2.80;;
22614;SDS011;11474;50.790;0.298;2023-07-30T05:26:28;22.90;;;2.97;;
22614;SDS011;11474;50.790;0.298;2023-07-30T05:28:55;15.30;;;2.70;;
22614;SDS011;11474;50.790;0.298;2023-07-30T05:31:21;16.98;;;2.97;;
22614;SDS011;11474;50.790;0.298;2023-07-30T05:33:47;20.27;;;2.87;;
22614;SDS011;11474;50.790;0.298;2023-07-30T05:36:13;10.07;;;2.20;;
22614;SDS011;11474;50.790;0.298;2023-07-30T05:38:39;10.68;;;2.35;;
22614;SDS011;11474;50.790;0.298;2023-07-30T05:41:05;12.40;;;2.43;;
22614;SDS011;11474;50.790;0.298;2023-07-30T05:43:31;16.30;;;2.47;;
22614;SDS011;11474;50.790;0.298;2023-07-30T05:45:57;12.80;;;2.50;;
22614;SDS011;11474;50.790;0.298;2023-07-30T05:48:23;15.02;;;2.60;;
22614;SDS011;11474;50.790;0.298;2023-07-30T05:50:49;17.00;;;2.80;;
22614;SDS011;11474;50.790;0.298;2023-07-30T05:53:15;20.38;;;2.70;;
22614;SDS011;11474;50.790;0.298;2023-07-30T05:55:41;15.68;;;3.22;;
22614;SDS011;11474;50.790;0.298;2023-07-30T05:58:07;16.08;;;2.75;;
22614;SDS011;11474;50.790;0.298;2023-07-30T06:00:33;14.18;;;2.90;;
22614;SDS011;11474;50.790;0.298;2023-07-30T06:03:00;15.43;;;3.05;;
22614;SDS011;11474;50.790;0.298;2023-07-30T06:05:26;12.15;;;2.80;;
22614;SDS011;11474;50.790;0.298;2023-07-30T06:07:52;11.77;;;2.33;;
22614;SDS011;11474;50.790;0.298;2023-07-30T06:10:18;14.65;;;3.20;;
22614;SDS011;11474;50.790;0.298;2023-07-30T06:12:44;14.93;;;2.58;;
22614;SDS011;11474;50.790;0.298;2023-07-30T06:15:10;14.20;;;2.75;;
22614;SDS011;11474;50.790;0.298;2023-07-30T06:17:36;17.90;;;3.10;;
22614;SDS011;11474;50.790;0.298;2023-07-30T06:20:03;19.47;;;3.43;;
22614;SDS011;11474;50.790;0.298;2023-07-30T06:22:29;15.32;;;3.45;;
22614;SDS011;11474;50.790;0.298;2023-07-30T06:24:55;16.63;;;3.28;;
22614;SDS011;11474;50.790;0.298;2023-07-30T06:27:21;17.88;;;3.00;;
22614;SDS011;11474;50.790;0.298;2023-07-30T06:29:47;17.10;;;2.78;;
22614;SDS011;11474;50.790;0.298;2023-07-30T06:32:13;12.73;;;3.10;;
22614;SDS011;11474;50.790;0.298;2023-07-30T06:34:40;15.73;;;3.08;;
22614;SDS011;11474;50.790;0.298;2023-07-30T06:37:06;16.70;;;3.28;;
22614;SDS011;11474;50.790;0.298;2023-07-30T06:39:32;15.68;;;3.00;;
22614;SDS011;11474;50.790;0.298;2023-07-30T06:41:58;15.50;;;3.00;;
22614;SDS011;11474;50.790;0.298;2023-07-30T06:44:24;17.00;;;2.90;;
22614;SDS011;11474;50.790;0.298;2023-07-30T06:46:50;16.85;;;3.08;;
22614;SDS011;11474;50.790;0.298;2023-07-30T06:49:16;17.48;;;3.15;;
22614;SDS011;11474;50.790;0.298;2023-07-30T06:51:42;17.65;;;3.28;;
22614;SDS011;11474;50.790;0.298;2023-07-30T06:54:09;17.02;;;3.83;;
22614;SDS011;11474;50.790;0.298;2023-07-30T06:56:35;14.80;;;3.10;;
22614;SDS011;11474;50.790;0.298;2023-07-30T06:59:01;17.45;;;3.00;;
22614;SDS011;11474;50.790;0.298;2023-07-30T07:01:28;19.13;;;3.58;;
22614;SDS011;11474;50.790;0.298;2023-07-30T07:03:54;21.90;;;3.40;;
22614;SDS011;11474;50.790;0.298;2023-07-30T07:06:20;16.23;;;3.08;;
22614;SDS011;11474;50.790;0.298;2023-07-30T07:08:47;21.43;;;3.80;;
22614;SDS011;11474;50.790;0.298;2023-07-30T07:11:13;24.67;;;4.07;;
22614;SDS011;11474;50.790;0.298;2023-07-30T07:13:39;16.67;;;3.30;;
22614;SDS011;11474;50.790;0.298;2023-07-30T07:16:05;19.57;;;3.57;;
22614;SDS011;11474;50.790;0.298;2023-07-30T07:18:31;20.13;;;3.42;;
22614;SDS011;11474;50.790;0.298;2023-07-30T07:20:57;19.00;;;3.50;;
22614;SDS011;11474;50.790;0.298;2023-07-30T07:23:23;18.90;;;3.80;;
22614;SDS011;11474;50.790;0.298;2023-07-30T07:25:50;23.50;;;3.83;;
22614;SDS011;11474;50.790;0.298;2023-07-30T07:28:16;21.10;;;3.88;;
22614;SDS011;11474;50.790;0.298;2023-07-30T07:30:43;17.40;;;3.33;;
22614;SDS011;11474;50.790;0.298;2023-07-30T07:33:10;17.60;;;3.38;;
22614;SDS011;11474;50.790;0.298;2023-07-30T07:35:39;15.73;;;3.07;;
22614;SDS011;11474;50.790;0.298;2023-07-30T07:38:05;22.80;;;3.75;;
22614;SDS011;11474;50.790;0.298;2023-07-30T07:40:35;20.37;;;3.77;;
22614;SDS011;11474;50.790;0.298;2023-07-30T07:43:04;13.07;;;2.80;;
22614;SDS011;11474;50.790;0.298;2023-07-30T07:45:30;21.63;;;3.33;;
22614;SDS011;11474;50.790;0.298;2023-07-30T07:47:56;17.60;;;3.25;;
22614;SDS011;11474;50.790;0.298;2023-07-30T07:50:22;19.63;;;3.28;;
22614;SDS011;11474;50.790;0.298;2023-07-30T07:52:49;20.20;;;3.42;;
22614;SDS011;11474;50.790;0.298;2023-07-30T07:55:16;17.70;;;3.60;;
22614;SDS011;11474;50.790;0.298;2023-07-30T07:57:42;18.52;;;3.88;;
22614;SDS011;11474;50.790;0.298;2023-07-30T08:00:08;15.98;;;3.38;;
22614;SDS011;11474;50.790;0.298;2023-07-30T08:02:34;21.23;;;3.90;;
22614;SDS011;11474;50.790;0.298;2023-07-30T08:05:01;22.10;;;3.83;;
22614;SDS011;11474;50.790;0.298;2023-07-30T08:07:28;21.13;;;3.53;;
22614;SDS011;11474;50.790;0.298;2023-07-30T08:09:54;20.60;;;3.58;;
22614;SDS011;11474;50.790;0.298;2023-07-30T08:12:20;18.83;;;3.90;;
22614;SDS011;11474;50.790;0.298;2023-07-30T08:14:47;18.63;;;3.70;;
22614;SDS011;11474;50.790;0.298;2023-07-30T08:17:13;16.48;;;3.92;;
22614;SDS011;11474;50.790;0.298;2023-07-30T08:19:39;18.92;;;4.00;;
22614;SDS011;11474;50.790;0.298;2023-07-30T08:22:05;19.20;;;3.97;;
22614;SDS011;11474;50.790;0.298;2023-07-30T08:24:31;16.10;;;3.25;;
22614;SDS011;11474;50.790;0.298;2023-07-30T08:26:57;14.60;;;3.13;;
22614;SDS011;11474;50.790;0.298;2023-07-30T08:29:23;22.27;;;3.28;;
22614;SDS011;11474;50.790;0.298;2023-07-30T08:31:49;19.80;;;3.67;;
22614;SDS011;11474;50.790;0.298;2023-07-30T08:34:16;22.00;;;4.30;;
22614;SDS011;11474;50.790;0.298;2023-07-30T08:36:42;22.50;;;4.00;;
22614;SDS011;11474;50.790;0.298;2023-07-30T08:39:08;15.00;;;3.53;;
22614;SDS011;11474;50.790;0.298;2023-07-30T08:41:34;22.40;;;4.00;;
22614;SDS011;11474;50.790;0.298;2023-07-30T08:44:01;16.42;;;3.45;;
22614;SDS011;11474;50.790;0.298;2023-07-30T08:46:27;16.75;;;3.85;;
22614;SDS011;11474;50.790;0.298;2023-07-30T08:48:53;14.15;;;3.63;;
22614;SDS011;11474;50.790;0.298;2023-07-30T08:51:22;17.83;;;4.07;;
22614;SDS011;11474;50.790;0.298;2023-07-30T08:53:49;15.80;;;3.60;;
22614;SDS011;11474;50.790;0.298;2023-07-30T08:56:16;20.45;;;4.20;;
22614;SDS011;11474;50.790;0.298;2023-07-30T08:58:43;17.55;;;3.65;;
22614;SDS011;11474;50.790;0.298;2023-07-30T09:01:11;17.35;;;3.80;;
22614;SDS011;11474;50.790;0.298;2023-07-30T09:03:37;23.17;;;4.40;;
22614;SDS011;11474;50.790;0.298;2023-07-30T09:06:04;20.23;;;4.38;;
22614;SDS011;11474;50.790;0.298;2023-07-30T09:08:30;21.70;;;4.18;;
22614;SDS011;11474;50.790;0.298;2023-07-30T09:10:57;22.77;;;4.53;;
22614;SDS011;11474;50.790;0.298;2023-07-30T09:13:23;20.38;;;4.03;;
22614;SDS011;11474;50.790;0.298;2023-07-30T09:15:49;22.67;;;4.80;;
22614;SDS011;11474;50.790;0.298;2023-07-30T09:18:19;18.27;;;4.68;;
22614;SDS011;11474;50.790;0.298;2023-07-30T09:20:46;25.80;;;4.72;;
22614;SDS011;11474;50.790;0.298;2023-07-30T09:23:12;23.35;;;5.20;;
22614;SDS011;11474;50.790;0.298;2023-07-30T09:25:39;18.30;;;4.63;;
22614;SDS011;11474;50.790;0.298;2023-07-30T09:28:05;27.92;;;5.22;;
22614;SDS011;11474;50.790;0.298;2023-07-30T09:30:32;27.73;;;5.05;;
22614;SDS011;11474;50.790;0.298;2023-07-30T09:32:58;26.55;;;5.43;;
22614;SDS011;11474;50.790;0.298;2023-07-30T09:35:25;24.93;;;5.50;;
22614;SDS011;11474;50.790;0.298;2023-07-30T09:38:01;26.45;;;5.18;;
22614;SDS011;11474;50.790;0.298;2023-07-30T09:40:31;20.40;;;4.63;;
22614;SDS011;11474;50.790;0.298;2023-07-30T09:42:57;28.50;;;5.80;;
22614;SDS011;11474;50.790;0.298;2023-07-30T09:45:24;26.25;;;5.65;;
22614;SDS011;11474;50.790;0.298;2023-07-30T09:47:51;27.17;;;6.00;;
22614;SDS011;11474;50.790;0.298;2023-07-30T09:50:17;22.60;;;5.05;;
22614;SDS011;11474;50.790;0.298;2023-07-30T09:52:44;21.67;;;5.55;;
22614;SDS011;11474;50.790;0.298;2023-07-30T09:55:10;26.45;;;5.68;;
22614;SDS011;11474;50.790;0.298;2023-07-30T09:57:37;20.80;;;5.05;;
22614;SDS011;11474;50.790;0.298;2023-07-30T10:00:06;27.27;;;5.50;;
22614;SDS011;11474;50.790;0.298;2023-07-30T10:02:37;29.70;;;5.32;;
22614;SDS011;11474;50.790;0.298;2023-07-30T10:05:08;24.00;;;4.93;;
22614;SDS011;11474;50.790;0.298;2023-07-30T10:07:34;24.40;;;4.80;;
22614;SDS011;11474;50.790;0.298;2023-07-30T10:10:01;26.85;;;5.47;;
22614;SDS011;11474;50.790;0.298;2023-07-30T10:12:29;24.27;;;5.90;;
22614;SDS011;11474;50.790;0.298;2023-07-30T10:14:57;24.38;;;5.65;;
22614;SDS011;11474;50.790;0.298;2023-07-30T10:17:23;28.88;;;5.50;;
22614;SDS011;11474;50.790;0.298;2023-07-30T10:19:49;28.23;;;6.68;;
22614;SDS011;11474;50.790;0.298;2023-07-30T10:22:20;28.63;;;6.30;;
22614;SDS011;11474;50.790;0.298;2023-07-30T10:24:58;30.23;;;6.25;;
22614;SDS011;11474;50.790;0.298;2023-07-30T10:27:25;25.45;;;5.45;;
22614;SDS011;11474;50.790;0.298;2023-07-30T10:30:07;22.93;;;5.63;;
22614;SDS011;11474;50.790;0.298;2023-07-30T10:32:37;26.55;;;5.80;;
22614;SDS011;11474;50.790;0.298;2023-07-30T10:35:04;23.23;;;5.30;;
22614;SDS011;11474;50.790;0.298;2023-07-30T10:37:30;30.20;;;6.70;;
22614;SDS011;11474;50.790;0.298;2023-07-30T10:39:56;28.85;;;5.63;;
22614;SDS011;11474;50.790;0.298;2023-07-30T10:42:22;23.05;;;4.53;;
22614;SDS011;11474;50.790;0.298;2023-07-30T10:44:49;25.63;;;5.80;;
22614;SDS011;11474;50.790;0.298;2023-07-30T10:47:15;29.45;;;6.13;;
22614;SDS011;11474;50.790;0.298;2023-07-30T10:49:41;22.05;;;5.45;;
22614;SDS011;11474;50.790;0.298;2023-07-30T10:52:11;19.15;;;5.45;;
22614;SDS011;11474;50.790;0.298;2023-07-30T10:54:37;27.00;;;4.80;;
22614;SDS011;11474;50.790;0.298;2023-07-30T10:57:03;17.80;;;4.30;;
22614;SDS011;11474;50.790;0.298;2023-07-30T10:59:36;17.70;;;4.20;;
22614;SDS011;11474;50.790;0.298;2023-07-30T11:02:02;13.18;;;3.85;;
22614;SDS011;11474;50.790;0.298;2023-07-30T11:04:29;18.00;;;4.20;;
22614;SDS011;11474;50.790;0.298;2023-07-30T11:06:55;11.13;;;3.00;;
22614;SDS011;11474;50.790;0.298;2023-07-30T11:09:24;13.80;;;3.60;;
22614;SDS011;11474;50.790;0.298;2023-07-30T11:11:51;18.15;;;4.00;;
22614;SDS011;11474;50.790;0.298;2023-07-30T11:14:22;16.67;;;4.03;;
22614;SDS011;11474;50.790;0.298;2023-07-30T11:16:49;15.95;;;3.72;;
22614;SDS011;11474;50.790;0.298;2023-07-30T11:19:16;18.52;;;4.63;;
22614;SDS011;11474;50.790;0.298;2023-07-30T11:21:48;19.70;;;4.53;;
22614;SDS011;11474;50.790;0.298;2023-07-30T11:24:15;20.50;;;4.88;;
22614;SDS011;11474;50.790;0.298;2023-07-30T11:26:42;21.63;;;5.32;;
22614;SDS011;11474;50.790;0.298;2023-07-30T11:29:17;17.00;;;3.90;;
22614;SDS011;11474;50.790;0.298;2023-07-30T11:31:44;17.38;;;4.57;;
22614;SDS011;11474;50.790;0.298;2023-07-30T11:34:10;20.50;;;5.10;;
22614;SDS011;11474;50.790;0.298;2023-07-30T11:36:37;24.83;;;5.63;;
22614;SDS011;11474;50.790;0.298;2023-07-30T11:39:03;19.95;;;4.88;;
22614;SDS011;11474;50.790;0.298;2023-07-30T11:41:29;20.30;;;5.22;;
22614;SDS011;11474;50.790;0.298;2023-07-30T11:43:56;17.48;;;4.63;;
22614;SDS011;11474;50.790;0.298;2023-07-30T11:46:22;17.02;;;4.50;;
22614;SDS011;11474;50.790;0.298;2023-07-30T11:48:49;16.00;;;4.93;;
22614;SDS011;11474;50.790;0.298;2023-07-30T11:51:33;19.88;;;5.07;;
22614;SDS011;11474;50.790;0.298;2023-07-30T11:53:59;22.02;;;4.82;;
22614;SDS011;11474;50.790;0.298;2023-07-30T11:56:33;22.63;;;5.38;;
22614;SDS011;11474;50.790;0.298;2023-07-30T11:59:06;22.10;;;5.33;;
22614;SDS011;11474;50.790;0.298;2023-07-30T12:01:33;20.83;;;4.97;;
22614;SDS011;11474;50.790;0.298;2023-07-30T12:04:00;18.95;;;5.28;;
22614;SDS011;11474;50.790;0.298;2023-07-30T12:09:21;20.33;;;5.15;;
22614;SDS011;11474;50.790;0.298;2023-07-30T12:11:51;18.77;;;5.00;;
22614;SDS011;11474;50.790;0.298;2023-07-30T12:14:18;13.80;;;4.40;;
22614;SDS011;11474;50.790;0.298;2023-07-30T12:16:45;16.70;;;4.72;;
22614;SDS011;11474;50.790;0.298;2023-07-30T12:19:11;16.90;;;4.30;;
22614;SDS011;11474;50.790;0.298;2023-07-30T12:21:37;20.38;;;4.50;;
22614;SDS011;11474;50.790;0.298;2023-07-30T12:24:03;15.50;;;4.15;;
22614;SDS011;11474;50.790;0.298;2023-07-30T12:26:30;14.93;;;4.75;;
22614;SDS011;11474;50.790;0.298;2023-07-30T12:28:56;16.88;;;4.78;;
22614;SDS011;11474;50.790;0.298;2023-07-30T12:31:22;19.60;;;5.28;;
22614;SDS011;11474;50.790;0.298;2023-07-30T12:33:48;22.60;;;6.40;;
22614;SDS011;11474;50.790;0.298;2023-07-30T12:36:14;21.98;;;6.95;;
22614;SDS011;11474;50.790;0.298;2023-07-30T12:38:40;29.60;;;7.40;;
22614;SDS011;11474;50.790;0.298;2023-07-30T12:41:06;28.40;;;7.38;;
22614;SDS011;11474;50.790;0.298;2023-07-30T12:43:32;32.92;;;8.73;;
22614;SDS011;11474;50.790;0.298;2023-07-30T12:45:59;29.40;;;8.50;;
22614;SDS011;11474;50.790;0.298;2023-07-30T12:48:25;39.65;;;10.05;;
22614;SDS011;11474;50.790;0.298;2023-07-30T12:50:51;50.55;;;10.38;;
22614;SDS011;11474;50.790;0.298;2023-07-30T12:53:17;34.38;;;8.93;;
22614;SDS011;11474;50.790;0.298;2023-07-30T12:55:43;36.20;;;8.30;;
22614;SDS011;11474;50.790;0.298;2023-07-30T12:58:09;31.65;;;8.55;;
22614;SDS011;11474;50.790;0.298;2023-07-30T13:00:35;29.98;;;7.63;;
22614;SDS011;11474;50.790;0.298;2023-07-30T13:03:01;28.90;;;7.63;;
22614;SDS011;11474;50.790;0.298;2023-07-30T13:05:27;30.60;;;8.95;;
22614;SDS011;11474;50.790;0.298;2023-07-30T13:07:53;36.58;;;9.52;;
22614;SDS011;11474;50.790;0.298;2023-07-30T13:10:19;35.78;;;9.18;;
22614;SDS011;11474;50.790;0.298;2023-07-30T13:12:45;39.28;;;9.60;;
22614;SDS011;11474;50.790;0.298;2023-07-30T13:15:11;36.63;;;9.20;;
22614;SDS011;11474;50.790;0.298;2023-07-30T13:17:38;28.57;;;7.80;;
22614;SDS011;11474;50.790;0.298;2023-07-30T13:20:04;32.67;;;8.15;;
22614;SDS011;11474;50.790;0.298;2023-07-30T13:22:31;33.22;;;8.68;;
22614;SDS011;11474;50.790;0.298;2023-07-30T13:24:57;41.28;;;9.88;;
22614;SDS011;11474;50.790;0.298;2023-07-30T13:27:23;42.47;;;10.20;;
22614;SDS011;11474;50.790;0.298;2023-07-30T13:29:49;50.65;;;11.43;;
22614;SDS011;11474;50.790;0.298;2023-07-30T13:32:15;48.92;;;11.75;;
22614;SDS011;11474;50.790;0.298;2023-07-30T13:34:41;50.97;;;12.40;;
22614;SDS011;11474;50.790;0.298;2023-07-30T13:37:08;47.72;;;11.15;;
22614;SDS011;11474;50.790;0.298;2023-07-30T13:39:35;52.58;;;12.00;;
22614;SDS011;11474;50.790;0.298;2023-07-30T13:42:02;53.33;;;12.57;;
22614;SDS011;11474;50.790;0.298;2023-07-30T13:44:28;46.50;;;10.88;;
22614;SDS011;11474;50.790;0.298;2023-07-30T13:46:54;49.70;;;11.53;;
22614;SDS011;11474;50.790;0.298;2023-07-30T13:49:20;42.65;;;10.63;;
22614;SDS011;11474;50.790;0.298;2023-07-30T13:51:46;48.60;;;11.40;;
22614;SDS011;11474;50.790;0.298;2023-07-30T13:54:13;45.37;;;11.40;;
22614;SDS011;11474;50.790;0.298;2023-07-30T13:56:39;48.90;;;12.25;;
22614;SDS011;11474;50.790;0.298;2023-07-30T13:59:05;55.70;;;13.65;;
22614;SDS011;11474;50.790;0.298;2023-07-30T14:01:31;55.13;;;12.48;;
22614;SDS011;11474;50.790;0.298;2023-07-30T14:03:57;55.65;;;12.05;;
22614;SDS011;11474;50.790;0.298;2023-07-30T14:06:23;68.00;;;13.43;;
22614;SDS011;11474;50.790;0.298;2023-07-30T14:08:49;55.72;;;12.80;;
22614;SDS011;11474;50.790;0.298;2023-07-30T14:11:15;56.38;;;12.43;;
22614;SDS011;11474;50.790;0.298;2023-07-30T14:13:41;42.92;;;10.80;;
22614;SDS011;11474;50.790;0.298;2023-07-30T14:16:07;51.05;;;11.93;;
22614;SDS011;11474;50.790;0.298;2023-07-30T14:18:33;61.92;;;12.50;;
22614;SDS011;11474;50.790;0.298;2023-07-30T14:21:00;55.47;;;12.07;;
22614;SDS011;11474;50.790;0.298;2023-07-30T14:23:28;47.45;;;11.98;;
22614;SDS011;11474;50.790;0.298;2023-07-30T14:25:55;47.35;;;12.07;;
22614;SDS011;11474;50.790;0.298;2023-07-30T14:28:22;47.03;;;11.10;;
22614;SDS011;11474;50.790;0.298;2023-07-30T14:30:49;51.90;;;12.05;;
22614;SDS011;11474;50.790;0.298;2023-07-30T14:33:16;51.47;;;12.00;;
22614;SDS011;11474;50.790;0.298;2023-07-30T14:35:42;53.17;;;12.15;;